createdAt,value
2023-06-17T00:03:00.169Z,20.23
2023-06-17T00:08:02.677Z,22.25
2023-06-17T00:13:05.009Z,22.02
2023-06-17T00:18:08.718Z,24.58
2023-06-17T00:23:10.846Z,24.25
2023-06-17T00:28:13.107Z,22.17
2023-06-17T00:33:16.525Z,33.40
2023-06-17T00:38:19.922Z,24.92
2023-06-17T00:43:23.140Z,20.80
2023-06-17T00:48:26.213Z,28.73
2023-06-17T00:53:28.948Z,18.85
2023-06-17T00:58:32.020Z,20.17
2023-06-17T01:03:35.652Z,20.52
2023-06-17T01:08:45.517Z,24.30
2023-06-17T01:13:51.696Z,21.33
2023-06-17T01:18:55.390Z,20.25
2023-06-17T01:24:02.021Z,18.70
2023-06-17T01:29:04.239Z,16.65
2023-06-17T01:34:07.808Z,15.75
2023-06-17T01:39:17.062Z,14.88
2023-06-17T01:49:23.128Z,18.55
2023-06-17T01:54:25.348Z,21.33
2023-06-17T01:59:28.187Z,20.50
2023-06-17T02:04:30.395Z,20.67
2023-06-17T02:09:33.437Z,18.77
2023-06-17T02:14:35.698Z,17.35
2023-06-17T02:19:40.906Z,16.90
2023-06-17T02:24:44.006Z,17.88
2023-06-17T02:29:46.615Z,21.88
2023-06-17T02:40:55.076Z,20.55
2023-06-17T02:46:45.698Z,23.40
2023-06-17T02:52:55.272Z,20.65
2023-06-17T02:58:30.072Z,21.08
2023-06-17T03:03:39.568Z,19.33
2023-06-17T03:08:45.636Z,18.10
2023-06-17T03:13:47.986Z,20.63
2023-06-17T03:18:55.788Z,19.50
2023-06-17T03:23:59.350Z,21.05
2023-06-17T03:29:02.910Z,18.08
2023-06-17T03:34:05.180Z,17.20
2023-06-17T03:39:07.725Z,15.48
2023-06-17T03:44:12.604Z,15.40
2023-06-17T03:49:14.829Z,15.55
2023-06-17T03:54:18.059Z,16.00
2023-06-17T03:59:20.370Z,16.38
2023-06-17T04:04:24.694Z,19.23
2023-06-17T04:09:27.146Z,17.75
2023-06-17T04:14:29.431Z,19.40
2023-06-17T04:19:33.105Z,16.77
2023-06-17T04:24:35.793Z,16.70
2023-06-17T04:29:38.681Z,17.95
2023-06-17T04:34:43.783Z,14.10
2023-06-17T04:39:47.050Z,18.50
2023-06-17T04:44:50.171Z,20.17
2023-06-17T04:49:52.965Z,18.98
2023-06-17T04:54:55.733Z,21.48
2023-06-17T04:59:58.315Z,20.75
2023-06-17T05:05:01.042Z,19.52
2023-06-17T05:10:04.360Z,18.23
2023-06-17T05:15:09.400Z,15.38
2023-06-17T05:20:12.108Z,14.57
2023-06-17T05:25:15.839Z,17.88
2023-06-17T05:30:19.138Z,19.15
2023-06-17T05:35:24.490Z,18.27
2023-06-17T05:40:26.902Z,19.13
2023-06-17T05:45:29.539Z,21.38
2023-06-17T05:50:32.557Z,20.67
2023-06-17T05:55:36.645Z,21.83
2023-06-17T06:00:38.896Z,22.35
2023-06-17T06:05:41.067Z,21.02
2023-06-17T06:10:43.324Z,24.52
2023-06-17T06:15:45.851Z,16.42
2023-06-17T06:20:48.115Z,19.63
2023-06-17T06:25:50.384Z,18.00
2023-06-17T06:30:52.718Z,19.83
2023-06-17T06:35:54.880Z,21.98
2023-06-17T06:40:58.898Z,19.13
2023-06-17T06:46:02.952Z,20.10
2023-06-17T06:51:05.581Z,17.70
2023-06-17T06:56:08.470Z,19.60
2023-06-17T07:01:14.978Z,14.27
2023-06-17T07:06:17.666Z,17.10
2023-06-17T07:11:21.732Z,15.20
2023-06-17T07:16:34.869Z,14.82
2023-06-17T07:22:04.040Z,16.15
2023-06-17T07:27:09.547Z,13.65
2023-06-17T07:43:31.740Z,7.60
2023-06-17T07:49:06.307Z,8.65
2023-06-17T07:54:55.869Z,10.55
2023-06-17T08:05:44.948Z,9.82
2023-06-17T08:10:58.303Z,8.43
2023-06-17T08:16:13.415Z,8.95
2023-06-17T08:21:18.780Z,8.80
2023-06-17T08:26:21.349Z,8.45
2023-06-17T08:31:27.639Z,8.90
2023-06-17T08:36:30.781Z,9.65
2023-06-17T08:41:42.364Z,9.63
2023-06-17T08:46:47.089Z,7.78
2023-06-17T08:57:45.531Z,8.95
2023-06-17T09:02:48.922Z,8.40
2023-06-17T09:07:55.787Z,7.60
2023-06-17T09:13:02.037Z,7.38
2023-06-17T09:18:09.525Z,14.77
2023-06-17T09:23:18.495Z,19.10
2023-06-17T09:28:20.759Z,14.32
2023-06-17T09:33:26.106Z,12.48
2023-06-17T09:38:29.257Z,13.32
2023-06-17T09:43:31.852Z,12.85
2023-06-17T09:48:38.811Z,9.13
2023-06-17T09:53:43.328Z,9.85
2023-06-17T09:58:46.113Z,12.40
2023-06-17T10:03:48.968Z,9.85
2023-06-17T10:08:53.317Z,12.45
2023-06-17T10:14:01.949Z,8.15
2023-06-17T10:24:09.784Z,9.18
2023-06-17T10:29:12.885Z,10.60
2023-06-17T10:34:25.313Z,10.27
2023-06-17T10:39:27.802Z,7.93
2023-06-17T10:44:36.099Z,10.05
2023-06-17T10:49:42.406Z,6.35
2023-06-17T10:54:55.394Z,6.47
2023-06-17T11:00:08.123Z,7.93
2023-06-17T11:05:10.481Z,7.70
2023-06-17T11:10:12.748Z,8.30
2023-06-17T11:15:15.665Z,7.88
2023-06-17T11:20:19.018Z,7.03
2023-06-17T11:25:26.925Z,7.80
2023-06-17T11:30:39.685Z,9.02
2023-06-17T11:35:44.485Z,7.38
2023-06-17T11:40:46.612Z,8.95
2023-06-17T11:45:48.888Z,7.78
2023-06-17T11:50:51.095Z,7.20
2023-06-17T11:55:55.247Z,8.07
2023-06-17T12:01:01.944Z,7.00
2023-06-17T12:06:04.931Z,5.15
2023-06-17T12:11:29.073Z,6.78
2023-06-17T12:16:34.947Z,6.30
2023-06-17T12:21:43.192Z,4.10
2023-06-17T12:26:51.110Z,5.75
2023-06-17T12:31:54.244Z,4.97
2023-06-17T12:36:56.630Z,5.55
2023-06-17T12:42:00.038Z,5.32
2023-06-17T12:47:03.727Z,3.75
2023-06-17T12:52:06.353Z,5.15
2023-06-17T12:57:09.433Z,4.50
2023-06-17T13:02:12.690Z,4.53
2023-06-17T13:07:17.803Z,5.82
2023-06-17T13:12:21.009Z,4.55
2023-06-17T13:17:23.591Z,3.97
2023-06-17T13:22:26.896Z,4.88
2023-06-17T13:27:29.598Z,5.55
2023-06-17T13:32:32.514Z,3.83
2023-06-17T13:37:35.670Z,5.20
2023-06-17T13:42:38.113Z,3.75
2023-06-17T13:47:40.520Z,3.72
2023-06-17T13:52:42.714Z,3.92
2023-06-17T13:57:44.884Z,3.53
2023-06-17T14:02:47.150Z,5.55
2023-06-17T14:07:52.780Z,3.33
2023-06-17T14:12:56.163Z,3.15
2023-06-17T14:17:58.579Z,6.50
2023-06-17T14:23:03.929Z,3.45
2023-06-17T14:28:06.051Z,3.28
2023-06-17T14:33:08.999Z,2.83
2023-06-17T14:38:11.495Z,3.08
2023-06-17T14:43:13.886Z,2.75
2023-06-17T14:48:16.083Z,3.00
2023-06-17T14:53:41.626Z,2.78
2023-06-17T14:58:43.800Z,2.63
2023-06-17T15:03:45.903Z,6.47
2023-06-17T15:08:48.212Z,3.80
2023-06-17T15:13:51.958Z,3.65
2023-06-17T15:18:56.042Z,3.15
2023-06-17T15:23:58.193Z,3.67
2023-06-17T15:29:00.643Z,3.10
2023-06-17T15:34:03.825Z,3.85
2023-06-17T15:39:20.407Z,2.80
2023-06-17T15:44:22.885Z,3.42
2023-06-17T15:49:25.101Z,4.05
2023-06-17T15:54:27.229Z,3.50
2023-06-17T15:59:30.211Z,2.90
2023-06-17T16:04:41.562Z,3.58
2023-06-17T16:09:48.884Z,3.00
2023-06-17T16:14:51.062Z,3.13
2023-06-17T16:19:53.456Z,2.67
2023-06-17T16:24:55.646Z,4.63
2023-06-17T16:29:57.788Z,3.10
2023-06-17T16:35:00.029Z,4.82
2023-06-17T16:40:02.177Z,7.90
2023-06-17T16:45:05.602Z,4.93
2023-06-17T16:50:08.268Z,5.55
2023-06-17T16:55:10.715Z,6.60
2023-06-17T17:00:13.539Z,7.97
2023-06-17T17:05:15.909Z,7.50
2023-06-17T17:10:24.451Z,7.25
2023-06-17T17:15:26.771Z,6.30
2023-06-17T17:20:28.855Z,6.88
2023-06-17T17:25:30.977Z,3.85
2023-06-17T17:30:33.108Z,6.07
2023-06-17T17:35:37.220Z,7.45
2023-06-17T17:40:39.318Z,4.45
2023-06-17T17:45:41.528Z,4.40
2023-06-17T17:50:43.796Z,6.40
2023-06-17T17:55:46.059Z,3.15
2023-06-17T18:00:48.313Z,3.58
2023-06-17T18:05:50.422Z,5.70
2023-06-17T18:10:52.746Z,4.03
2023-06-17T18:15:54.962Z,3.58
2023-06-17T18:20:57.221Z,4.30
2023-06-17T18:25:59.352Z,3.13
2023-06-17T18:31:01.575Z,3.75
2023-06-17T18:36:03.996Z,4.60
2023-06-17T18:41:06.113Z,3.28
2023-06-17T18:46:08.339Z,3.08
2023-06-17T18:51:11.144Z,4.07
2023-06-17T18:56:13.315Z,5.13
2023-06-17T19:01:15.875Z,4.43
2023-06-17T19:06:18.151Z,5.00
2023-06-17T19:11:20.507Z,6.78
2023-06-17T19:16:22.809Z,6.63
2023-06-17T19:21:25.025Z,5.80
2023-06-17T19:26:27.249Z,9.20
2023-06-17T19:31:29.355Z,15.75
2023-06-17T19:36:31.642Z,13.02
2023-06-17T19:41:33.827Z,9.63
2023-06-17T19:46:36.907Z,7.47
2023-06-17T19:51:39.168Z,7.68
2023-06-17T19:56:41.615Z,14.80
2023-06-17T20:01:43.928Z,11.57
2023-06-17T20:06:46.171Z,14.68
2023-06-17T20:11:48.412Z,10.32
2023-06-17T20:16:51.988Z,8.93
2023-06-17T20:21:54.139Z,8.35
2023-06-17T20:26:58.469Z,7.30
2023-06-17T20:32:01.481Z,5.97
2023-06-17T20:37:03.880Z,8.10
2023-06-17T20:42:06.387Z,8.60
2023-06-17T20:47:09.198Z,7.97
2023-06-17T20:52:11.402Z,5.25
2023-06-17T20:57:13.575Z,7.78
2023-06-17T21:02:18.531Z,7.75
2023-06-17T21:07:20.999Z,7.13
2023-06-17T21:12:23.974Z,10.80
2023-06-17T21:17:26.289Z,9.80
2023-06-17T21:22:28.464Z,10.80
2023-06-17T21:27:30.620Z,11.88
2023-06-17T21:32:32.890Z,13.90
2023-06-17T21:37:35.062Z,12.23
2023-06-17T21:42:37.867Z,18.48
2023-06-17T21:47:40.038Z,26.25
2023-06-17T21:52:42.170Z,14.75
2023-06-17T21:57:44.454Z,24.75
2023-06-17T22:02:47.865Z,21.17
2023-06-17T22:07:52.018Z,29.58
2023-06-17T22:12:55.616Z,21.38
2023-06-17T22:17:57.889Z,26.52
2023-06-17T22:23:00.226Z,20.27
2023-06-17T22:28:02.681Z,24.13
2023-06-17T22:33:05.484Z,28.27
2023-06-17T22:38:07.655Z,19.65
2023-06-17T22:43:09.858Z,15.68
2023-06-17T22:48:11.986Z,17.30
2023-06-17T22:53:14.237Z,19.35
2023-06-17T22:58:16.722Z,23.67
2023-06-17T23:03:19.038Z,16.80
2023-06-17T23:08:21.191Z,21.17
2023-06-17T23:13:23.667Z,13.52
2023-06-17T23:18:25.855Z,16.38
2023-06-17T23:23:27.978Z,15.60
2023-06-17T23:28:30.132Z,18.63
2023-06-17T23:33:32.416Z,18.65
2023-06-17T23:38:36.329Z,17.73
2023-06-17T23:43:38.443Z,20.67
2023-06-17T23:48:41.826Z,18.65
2023-06-17T23:53:44.029Z,18.38
2023-06-17T23:58:46.271Z,31.52
